NKS382 KFLL-KTPA
Flight info
| Callsign | NKS382 |
|---|---|
| Flight time | 0h 38m |
| Altitude | 18000 |
| Route | BNICE2 COREA BLFRG3 |
| Aircraft | A320/M-SDE3FGHIRWY/LB1 |
Departure
| Time | 2026-05-03 21:12 |
|---|---|
| Airport | Fort Lauderdale Hollywood International Airport (KFLL) |
Arrival
| Time | 2026-05-03 21:50 |
|---|---|
| Airport | Tampa International Airport (KTPA) |
| Time | Latitude | Longitude | Altitude | Speed | Heading |
|---|---|---|---|---|---|
| 2026-05-03 20:15 | 26.06880 | -80.14385 | 16 ft | 0 kts | 0° |
| 2026-05-03 20:40 | 26.06878 | -80.14385 | 16 ft | 2 kts | 0° |
| 2026-05-03 20:40 | 26.06853 | -80.14385 | 17 ft | 4 kts | 0° |
| 2026-05-03 20:40 | 26.06832 | -80.14385 | 18 ft | 4 kts | 340° |
| 2026-05-03 20:41 | 26.06818 | -80.14369 | 17 ft | 3 kts | 271° |
| 2026-05-03 20:41 | 26.06818 | -80.14349 | 17 ft | 0 kts | 270° |
| 2026-05-03 20:44 | 26.06818 | -80.14353 | 17 ft | 3 kts | 270° |
| 2026-05-03 20:44 | 26.06818 | -80.14401 | 16 ft | 9 kts | 271° |
| 2026-05-03 20:44 | 26.06819 | -80.14447 | 16 ft | 0 kts | 271° |
| 2026-05-03 20:47 | 26.06816 | -80.14477 | 16 ft | 7 kts | 257° |
| 2026-05-03 20:47 | 26.06797 | -80.14546 | 18 ft | 11 kts | 250° |
| 2026-05-03 20:48 | 26.06766 | -80.14641 | 15 ft | 15 kts | 265° |
| 2026-05-03 20:48 | 26.06766 | -80.14765 | 15 ft | 17 kts | 270° |
| 2026-05-03 20:48 | 26.06767 | -80.14911 | 15 ft | 20 kts | 270° |
| 2026-05-03 20:48 | 26.06768 | -80.15059 | 16 ft | 16 kts | 270° |
| 2026-05-03 20:49 | 26.06715 | -80.15137 | 20 ft | 12 kts | 211° |
| 2026-05-03 20:49 | 26.06695 | -80.15226 | 21 ft | 13 kts | 271° |
| 2026-05-03 20:49 | 26.06696 | -80.15359 | 16 ft | 15 kts | 270° |
| 2026-05-03 20:49 | 26.06697 | -80.15468 | 16 ft | 13 kts | 271° |
| 2026-05-03 20:50 | 26.06697 | -80.15529 | 16 ft | 8 kts | 270° |
| 2026-05-03 20:50 | 26.06697 | -80.15543 | 16 ft | 0 kts | 270° |
| 2026-05-03 20:51 | 26.06697 | -80.15558 | 16 ft | 4 kts | 270° |
| 2026-05-03 20:51 | 26.06697 | -80.15576 | 16 ft | 0 kts | 270° |
| 2026-05-03 20:52 | 26.06697 | -80.15580 | 16 ft | 2 kts | 271° |
| 2026-05-03 20:53 | 26.06698 | -80.15610 | 16 ft | 0 kts | 271° |
| 2026-05-03 20:56 | 26.06698 | -80.15612 | 16 ft | 2 kts | 271° |
| 2026-05-03 20:56 | 26.06698 | -80.15647 | 16 ft | 7 kts | 270° |
| 2026-05-03 20:57 | 26.06698 | -80.15659 | 16 ft | 0 kts | 270° |
| 2026-05-03 21:02 | 26.06698 | -80.15662 | 18 ft | 2 kts | 270° |
| 2026-05-03 21:02 | 26.06698 | -80.15680 | 16 ft | 3 kts | 270° |
| 2026-05-03 21:02 | 26.06698 | -80.15704 | 16 ft | 1 kts | 270° |
| 2026-05-03 21:03 | 26.06698 | -80.15706 | 16 ft | 0 kts | 270° |
| 2026-05-03 21:05 | 26.06698 | -80.15722 | 16 ft | 4 kts | 270° |
| 2026-05-03 21:06 | 26.06698 | -80.15751 | 16 ft | 3 kts | 271° |
| 2026-05-03 21:06 | 26.06698 | -80.15755 | 16 ft | 0 kts | 271° |
| 2026-05-03 21:08 | 26.06698 | -80.15771 | 16 ft | 3 kts | 271° |
| 2026-05-03 21:08 | 26.06692 | -80.15806 | 16 ft | 5 kts | 245° |
| 2026-05-03 21:08 | 26.06674 | -80.15819 | 16 ft | 1 kts | 194° |
| 2026-05-03 21:08 | 26.06673 | -80.15819 | 16 ft | 0 kts | 184° |
| 2026-05-03 21:10 | 26.06670 | -80.15819 | 19 ft | 4 kts | 181° |
| 2026-05-03 21:10 | 26.06609 | -80.15816 | 18 ft | 9 kts | 178° |
| 2026-05-03 21:10 | 26.06587 | -80.15778 | 19 ft | 0 kts | 78° |
| 2026-05-03 21:11 | 26.06591 | -80.15654 | 23 ft | 50 kts | 89° |
| 2026-05-03 21:11 | 26.06587 | -80.14988 | 19 ft | 119 kts | 91° |
| 2026-05-03 21:12 | 26.06578 | -80.13903 | 190 ft | 151 kts | 89° |
| 2026-05-03 21:12 | 26.06615 | -80.12753 | 860 ft | 149 kts | 85° |
| 2026-05-03 21:12 | 26.06695 | -80.11570 | 1394 ft | 159 kts | 79° |
| 2026-05-03 21:12 | 26.07123 | -80.10431 | 1923 ft | 166 kts | 56° |
| 2026-05-03 21:13 | 26.07821 | -80.09333 | 2293 ft | 182 kts | 54° |
| 2026-05-03 21:13 | 26.08553 | -80.08106 | 2649 ft | 199 kts | 54° |
| 2026-05-03 21:13 | 26.09606 | -80.07032 | 2956 ft | 216 kts | 28° |
| 2026-05-03 21:13 | 26.11068 | -80.06360 | 3323 ft | 239 kts | 19° |
| 2026-05-03 21:14 | 26.12712 | -80.05708 | 3825 ft | 263 kts | 18° |
| 2026-05-03 21:14 | 26.14487 | -80.05041 | 3983 ft | 271 kts | 12° |
| 2026-05-03 21:14 | 26.16352 | -80.04949 | 4080 ft | 269 kts | 348° |
| 2026-05-03 21:14 | 26.18129 | -80.05573 | 4054 ft | 267 kts | 338° |
| 2026-05-03 21:15 | 26.19867 | -80.06286 | 4090 ft | 266 kts | 338° |
| 2026-05-03 21:15 | 26.21467 | -80.07293 | 4084 ft | 264 kts | 318° |
| 2026-05-03 21:15 | 26.22337 | -80.08241 | 4101 ft | 266 kts | 308° |
| 2026-05-03 21:15 | 26.23552 | -80.10673 | 5294 ft | 268 kts | 290° |
| 2026-05-03 21:16 | 26.24234 | -80.12591 | 6486 ft | 266 kts | 290° |
| 2026-05-03 21:16 | 26.24924 | -80.14513 | 7438 ft | 270 kts | 290° |
| 2026-05-03 21:16 | 26.25513 | -80.16501 | 8481 ft | 270 kts | 280° |
| 2026-05-03 21:16 | 26.25832 | -80.18557 | 9525 ft | 270 kts | 278° |
| 2026-05-03 21:17 | 26.26135 | -80.20645 | 10365 ft | 279 kts | 277° |
| 2026-05-03 21:17 | 26.26339 | -80.22094 | 10609 ft | 294 kts | 277° |
| 2026-05-03 21:17 | 26.26775 | -80.25212 | 11283 ft | 309 kts | 277° |
| 2026-05-03 21:17 | 26.27104 | -80.27608 | 12012 ft | 317 kts | 276° |
| 2026-05-03 21:18 | 26.27328 | -80.29225 | 12525 ft | 321 kts | 277° |
| 2026-05-03 21:18 | 26.27676 | -80.31694 | 12877 ft | 322 kts | 277° |
| 2026-05-03 21:18 | 26.28034 | -80.34152 | 12987 ft | 320 kts | 277° |
| 2026-05-03 21:18 | 26.28392 | -80.36593 | 13011 ft | 319 kts | 277° |
| 2026-05-03 21:19 | 26.28747 | -80.39033 | 13014 ft | 319 kts | 277° |
| 2026-05-03 21:19 | 26.29097 | -80.41471 | 13014 ft | 319 kts | 277° |
| 2026-05-03 21:19 | 26.29444 | -80.43911 | 13014 ft | 319 kts | 277° |
| 2026-05-03 21:19 | 26.29789 | -80.46372 | 13354 ft | 323 kts | 277° |
| 2026-05-03 21:20 | 26.30136 | -80.48855 | 14071 ft | 324 kts | 277° |
| 2026-05-03 21:20 | 26.30486 | -80.51344 | 14722 ft | 326 kts | 277° |
| 2026-05-03 21:20 | 26.30837 | -80.53844 | 15373 ft | 328 kts | 276° |
| 2026-05-03 21:20 | 26.31191 | -80.56364 | 16130 ft | 329 kts | 276° |
| 2026-05-03 21:21 | 26.31548 | -80.58895 | 16887 ft | 331 kts | 276° |
| 2026-05-03 21:21 | 26.31908 | -80.61440 | 17577 ft | 334 kts | 276° |
| 2026-05-03 21:21 | 26.32269 | -80.64005 | 18280 ft | 336 kts | 276° |
| 2026-05-03 21:21 | 26.32629 | -80.66592 | 18892 ft | 339 kts | 276° |
| 2026-05-03 21:22 | 26.32993 | -80.69197 | 19482 ft | 341 kts | 275° |
| 2026-05-03 21:22 | 26.33360 | -80.71818 | 19898 ft | 343 kts | 275° |
| 2026-05-03 21:22 | 26.33727 | -80.74444 | 20013 ft | 342 kts | 275° |
| 2026-05-03 21:22 | 26.34091 | -80.77039 | 20045 ft | 337 kts | 275° |
| 2026-05-03 21:23 | 26.34448 | -80.79611 | 20049 ft | 335 kts | 275° |
| 2026-05-03 21:23 | 26.34808 | -80.82237 | 20048 ft | 352 kts | 275° |
| 2026-05-03 21:23 | 26.35182 | -80.84978 | 20047 ft | 362 kts | 275° |
| 2026-05-03 21:23 | 26.35565 | -80.87761 | 20050 ft | 364 kts | 275° |
| 2026-05-03 21:24 | 26.36056 | -80.90592 | 20049 ft | 384 kts | 283° |
| 2026-05-03 21:24 | 26.37215 | -80.93339 | 20043 ft | 400 kts | 299° |
| 2026-05-03 21:24 | 26.39082 | -80.95698 | 20039 ft | 411 kts | 311° |
| 2026-05-03 21:24 | 26.41154 | -80.97853 | 20049 ft | 412 kts | 311° |
| 2026-05-03 21:25 | 26.43249 | -81.00036 | 20042 ft | 413 kts | 311° |
| 2026-05-03 21:25 | 26.45344 | -81.02225 | 20048 ft | 412 kts | 310° |
| 2026-05-03 21:25 | 26.47437 | -81.04418 | 20046 ft | 413 kts | 310° |
| 2026-05-03 21:25 | 26.49524 | -81.06613 | 20053 ft | 413 kts | 310° |
| 2026-05-03 21:26 | 26.51612 | -81.08814 | 20057 ft | 413 kts | 310° |
| 2026-05-03 21:26 | 26.53700 | -81.11014 | 20047 ft | 413 kts | 310° |
| 2026-05-03 21:26 | 26.55788 | -81.13215 | 20047 ft | 412 kts | 310° |
| 2026-05-03 21:26 | 26.57874 | -81.15415 | 20047 ft | 412 kts | 310° |
| 2026-05-03 21:27 | 26.59957 | -81.17614 | 20065 ft | 412 kts | 310° |
| 2026-05-03 21:27 | 26.62040 | -81.19812 | 20063 ft | 412 kts | 310° |
| 2026-05-03 21:27 | 26.64048 | -81.22081 | 20062 ft | 407 kts | 304° |
| 2026-05-03 21:27 | 26.65824 | -81.24534 | 20059 ft | 406 kts | 303° |
| 2026-05-03 21:28 | 26.67591 | -81.26992 | 20053 ft | 406 kts | 303° |
| 2026-05-03 21:28 | 26.69359 | -81.29453 | 20056 ft | 406 kts | 303° |
| 2026-05-03 21:28 | 26.71133 | -81.31920 | 20055 ft | 406 kts | 303° |
| 2026-05-03 21:28 | 26.72900 | -81.34379 | 20054 ft | 405 kts | 303° |
| 2026-05-03 21:29 | 26.74670 | -81.36841 | 20057 ft | 405 kts | 303° |
| 2026-05-03 21:29 | 26.76435 | -81.39297 | 20055 ft | 405 kts | 303° |
| 2026-05-03 21:29 | 26.78205 | -81.41761 | 20057 ft | 405 kts | 303° |
| 2026-05-03 21:29 | 26.79972 | -81.44217 | 20052 ft | 405 kts | 303° |
| 2026-05-03 21:30 | 26.81741 | -81.46677 | 20050 ft | 405 kts | 303° |
| 2026-05-03 21:30 | 26.83504 | -81.49134 | 20047 ft | 405 kts | 303° |
| 2026-05-03 21:30 | 26.85270 | -81.51599 | 20052 ft | 405 kts | 303° |
| 2026-05-03 21:30 | 26.87033 | -81.54065 | 20056 ft | 405 kts | 303° |
| 2026-05-03 21:31 | 26.88793 | -81.56529 | 20052 ft | 405 kts | 303° |
| 2026-05-03 21:31 | 26.90555 | -81.58995 | 20054 ft | 405 kts | 303° |
| 2026-05-03 21:31 | 26.92316 | -81.61460 | 20056 ft | 405 kts | 303° |
| 2026-05-03 21:31 | 26.94077 | -81.63929 | 20080 ft | 405 kts | 303° |
| 2026-05-03 21:32 | 26.95838 | -81.66390 | 20088 ft | 405 kts | 303° |
| 2026-05-03 21:32 | 26.97600 | -81.68849 | 20089 ft | 404 kts | 303° |
| 2026-05-03 21:32 | 26.99360 | -81.71306 | 19819 ft | 403 kts | 303° |
| 2026-05-03 21:32 | 27.01107 | -81.73751 | 19577 ft | 401 kts | 303° |
| 2026-05-03 21:33 | 27.02840 | -81.76186 | 19348 ft | 399 kts | 303° |
| 2026-05-03 21:33 | 27.04567 | -81.78619 | 19119 ft | 398 kts | 303° |
| 2026-05-03 21:33 | 27.06291 | -81.81047 | 18891 ft | 397 kts | 303° |
| 2026-05-03 21:33 | 27.08039 | -81.83437 | 18663 ft | 398 kts | 308° |
| 2026-05-03 21:34 | 27.10170 | -81.85464 | 18442 ft | 404 kts | 316° |
| 2026-05-03 21:34 | 27.12411 | -81.87366 | 18187 ft | 403 kts | 317° |
| 2026-05-03 21:34 | 27.14653 | -81.89255 | 17918 ft | 402 kts | 317° |
| 2026-05-03 21:34 | 27.16876 | -81.91118 | 17673 ft | 391 kts | 317° |
| 2026-05-03 21:35 | 27.19014 | -81.92907 | 17327 ft | 377 kts | 317° |
| 2026-05-03 21:35 | 27.21101 | -81.94664 | 16730 ft | 373 kts | 317° |
| 2026-05-03 21:35 | 27.23165 | -81.96412 | 16222 ft | 371 kts | 317° |
| 2026-05-03 21:35 | 27.25220 | -81.98158 | 15730 ft | 369 kts | 317° |
| 2026-05-03 21:36 | 27.27262 | -81.99893 | 15213 ft | 367 kts | 317° |
| 2026-05-03 21:36 | 27.29269 | -82.01599 | 14721 ft | 366 kts | 317° |
| 2026-05-03 21:36 | 27.31294 | -82.03320 | 14223 ft | 364 kts | 318° |
| 2026-05-03 21:36 | 27.33312 | -82.05033 | 13720 ft | 363 kts | 318° |
| 2026-05-03 21:37 | 27.35326 | -82.06739 | 13196 ft | 361 kts | 318° |
| 2026-05-03 21:37 | 27.37317 | -82.08435 | 12724 ft | 357 kts | 317° |
| 2026-05-03 21:37 | 27.39253 | -82.10162 | 12249 ft | 353 kts | 316° |
| 2026-05-03 21:37 | 27.41137 | -82.11913 | 11789 ft | 349 kts | 315° |
| 2026-05-03 21:38 | 27.42956 | -82.13631 | 11597 ft | 332 kts | 315° |
| 2026-05-03 21:38 | 27.44649 | -82.15302 | 11456 ft | 315 kts | 312° |
| 2026-05-03 21:38 | 27.46202 | -82.16963 | 11337 ft | 301 kts | 311° |
| 2026-05-03 21:38 | 27.47673 | -82.18577 | 11208 ft | 289 kts | 310° |
| 2026-05-03 21:39 | 27.49088 | -82.20148 | 11055 ft | 284 kts | 310° |
| 2026-05-03 21:39 | 27.50491 | -82.21707 | 11015 ft | 283 kts | 310° |
| 2026-05-03 21:39 | 27.51901 | -82.23268 | 11019 ft | 284 kts | 310° |
| 2026-05-03 21:39 | 27.53314 | -82.24827 | 10993 ft | 284 kts | 310° |
| 2026-05-03 21:40 | 27.54719 | -82.26370 | 10657 ft | 281 kts | 310° |
| 2026-05-03 21:40 | 27.56116 | -82.27903 | 10301 ft | 280 kts | 311° |
| 2026-05-03 21:40 | 27.57507 | -82.29428 | 9964 ft | 278 kts | 311° |
| 2026-05-03 21:40 | 27.58887 | -82.30939 | 9602 ft | 276 kts | 311° |
| 2026-05-03 21:41 | 27.60258 | -82.32440 | 9239 ft | 274 kts | 311° |
| 2026-05-03 21:41 | 27.61621 | -82.33935 | 8870 ft | 273 kts | 311° |
| 2026-05-03 21:41 | 27.62982 | -82.35428 | 8481 ft | 272 kts | 311° |
| 2026-05-03 21:41 | 27.64332 | -82.36910 | 8109 ft | 271 kts | 312° |
| 2026-05-03 21:42 | 27.65680 | -82.38393 | 7742 ft | 270 kts | 312° |
| 2026-05-03 21:42 | 27.67021 | -82.39868 | 7407 ft | 267 kts | 313° |
| 2026-05-03 21:42 | 27.68256 | -82.41362 | 7293 ft | 254 kts | 302° |
| 2026-05-03 21:42 | 27.69010 | -82.43096 | 7175 ft | 242 kts | 284° |
| 2026-05-03 21:43 | 27.69232 | -82.44932 | 6997 ft | 233 kts | 270° |
| 2026-05-03 21:43 | 27.69235 | -82.46753 | 6630 ft | 231 kts | 270° |
| 2026-05-03 21:43 | 27.69228 | -82.48564 | 6097 ft | 231 kts | 270° |
| 2026-05-03 21:43 | 27.69217 | -82.50376 | 5624 ft | 228 kts | 270° |
| 2026-05-03 21:44 | 27.69401 | -82.52096 | 5259 ft | 219 kts | 294° |
| 2026-05-03 21:44 | 27.70248 | -82.53498 | 4951 ft | 220 kts | 316° |
| 2026-05-03 21:44 | 27.71492 | -82.54506 | 4720 ft | 222 kts | 336° |
| 2026-05-03 21:44 | 27.72965 | -82.54983 | 4465 ft | 221 kts | 356° |
| 2026-05-03 21:45 | 27.74497 | -82.54977 | 4188 ft | 220 kts | 3° |
| 2026-05-03 21:45 | 27.76020 | -82.54924 | 3906 ft | 218 kts | 3° |
| 2026-05-03 21:45 | 27.77531 | -82.54873 | 3620 ft | 217 kts | 4° |
| 2026-05-03 21:45 | 27.79034 | -82.54822 | 3340 ft | 215 kts | 4° |
| 2026-05-03 21:46 | 27.80516 | -82.54773 | 3075 ft | 210 kts | 4° |
| 2026-05-03 21:46 | 27.81945 | -82.54724 | 2798 ft | 200 kts | 4° |
| 2026-05-03 21:46 | 27.83311 | -82.54687 | 2514 ft | 194 kts | 3° |
| 2026-05-03 21:46 | 27.84646 | -82.54676 | 2236 ft | 191 kts | 2° |
| 2026-05-03 21:47 | 27.85924 | -82.54652 | 2030 ft | 181 kts | 3° |
| 2026-05-03 21:47 | 27.87158 | -82.54607 | 1819 ft | 174 kts | 4° |
| 2026-05-03 21:47 | 27.88352 | -82.54544 | 1586 ft | 169 kts | 5° |
| 2026-05-03 21:47 | 27.89510 | -82.54462 | 1345 ft | 166 kts | 6° |
| 2026-05-03 21:48 | 27.90649 | -82.54388 | 1160 ft | 162 kts | 2° |
| 2026-05-03 21:48 | 27.91754 | -82.54465 | 962 ft | 150 kts | 357° |
| 2026-05-03 21:48 | 27.92736 | -82.54496 | 829 ft | 135 kts | 6° |
| 2026-05-03 21:48 | 27.93664 | -82.54416 | 621 ft | 133 kts | 7° |
| 2026-05-03 21:49 | 27.94592 | -82.54345 | 421 ft | 133 kts | 7° |
| 2026-05-03 21:49 | 27.95517 | -82.54283 | 270 ft | 133 kts | 5° |
| 2026-05-03 21:49 | 27.96447 | -82.54239 | 68 ft | 132 kts | 6° |
| 2026-05-03 21:49 | 27.97237 | -82.54205 | 50 ft | 81 kts | 1° |
| 2026-05-03 21:50 | 27.97651 | -82.54190 | 46 ft | 57 kts | 3° |
| 2026-05-03 21:50 | 27.97884 | -82.54155 | 48 ft | 18 kts | 29° |
| 2026-05-03 21:50 | 27.97879 | -82.54053 | 47 ft | 21 kts | 162° |
| 2026-05-03 21:50 | 27.97768 | -82.54063 | 47 ft | 14 kts | 184° |
| 2026-05-03 21:51 | 27.97668 | -82.54070 | 47 ft | 13 kts | 177° |
| 2026-05-03 21:51 | 27.97598 | -82.54066 | 47 ft | 5 kts | 159° |
| 2026-05-03 21:51 | 27.97590 | -82.53999 | 47 ft | 11 kts | 94° |
| 2026-05-03 21:51 | 27.97528 | -82.53965 | 45 ft | 15 kts | 144° |
| 2026-05-03 21:52 | 27.97463 | -82.53834 | 46 ft | 19 kts | 124° |
| 2026-05-03 21:52 | 27.97402 | -82.53732 | 51 ft | 18 kts | 126° |
| 2026-05-03 21:52 | 27.97351 | -82.53631 | 54 ft | 18 kts | 113° |
| 2026-05-03 21:52 | 27.97320 | -82.53501 | 46 ft | 16 kts | 97° |
| 2026-05-03 21:53 | 27.97315 | -82.53372 | 44 ft | 16 kts | 90° |
| 2026-05-03 21:53 | 27.97383 | -82.53332 | 43 ft | 6 kts | 317° |
| 2026-05-03 21:53 | 27.97414 | -82.53357 | 43 ft | 10 kts | 333° |
| 2026-05-03 21:53 | 27.97481 | -82.53366 | 43 ft | 6 kts | 2° |
| 2026-05-03 21:54 | 27.97511 | -82.53357 | 43 ft | 2 kts | 43° |
| 2026-05-03 21:54 | 27.97511 | -82.53341 | 43 ft | 3 kts | 90° |
| 2026-05-03 21:54 | 27.97510 | -82.53311 | 40 ft | 4 kts | 93° |
| 2026-05-03 21:54 | 27.97508 | -82.53275 | 43 ft | 1 kts | 94° |